Lake Dynasty — 3FZB2 — position and weather

sailwx.info

Track history (hours):
 
Tides and Currents Weather Stations Pressure Air Temp Water Temp Dewpoint Dewpoint Depression Visibility Wind Speed Wind Dir Waves Ship Positions

Lake Dynasty

Last reported at 2017-Dec-07 17:14 UTC. Time now 2017-Dec-14 13:19 UTC.
Position N 39°45' W 023°26'.

Length 182 m; draft 11.5 m.

Type: Cargo ship. MMSI: 370957000.

Date/timePositionNaut miles runAvg speedWind from/ knotsBaromVisibWave heightAir tempDewpointWater temp
2017-Dec-07 17:14N 39°45' W 023°26'25213.1
2017-Dec-06 21:55N 40°36' W 028°49'  
2017-Nov-30 04:28N 40°24' W 073°29'11 9.7
2017-Nov-30 03:20N 40°26' W 073°43'3 9.8
2017-Nov-30 02:59N 40°27' W 073°47'5 9.3
2017-Nov-30 02:30N 40°28' W 073°53'5 9.9
2017-Nov-30 01:59N 40°31' W 073°59'510.8
2017-Nov-30 01:30N 40°35' W 074°02'4 8.8
2017-Nov-30 01:00N 40°39' W 074°05'3 5.6
2017-Nov-30 00:30N 40°39' W 074°09'2 4.3
2017-Nov-30 00:00N 40°41' W 074°08'0 0.2
2017-Nov-29 23:26N 40°41' W 074°08'0 0.0
2017-Nov-29 22:59N 40°41' W 074°08'0 0.0
2017-Nov-29 22:23N 40°41' W 074°08'0 0.0
2017-Nov-29 21:56N 40°41' W 074°08'0 0.0
2017-Nov-29 21:26N 40°41' W 074°08'0 0.0
2017-Nov-29 20:56N 40°41' W 074°08'0 0.0
2017-Nov-29 20:23N 40°41' W 074°08'0 0.0
2017-Nov-29 19:53N 40°41' W 074°08'0 0.0
2017-Nov-29 19:29N 40°41' W 074°08'0 0.0
2017-Nov-29 18:59N 40°41' W 074°08'0 0.0
2017-Nov-29 18:26N 40°41' W 074°08'0 0.0
2017-Nov-29 17:59N 40°41' W 074°08'0 0.0
2017-Nov-29 17:29N 40°41' W 074°08'0 0.0
2017-Nov-29 16:59N 40°41' W 074°08'0 0.0
2017-Nov-29 16:23N 40°41' W 074°08'0 0.0
2017-Nov-29 15:59N 40°41' W 074°08'0 0.0
2017-Nov-29 15:29N 40°41' W 074°08'0 0.0
2017-Nov-29 14:53N 40°41' W 074°08'0 0.0
2017-Nov-29 14:29N 40°41' W 074°08'0 0.0
2017-Nov-29 13:59N 40°41' W 074°08'0 0.0
2017-Nov-29 13:26N 40°41' W 074°08'0 0.0
2017-Nov-29 12:53N 40°41' W 074°08'0 0.0
2017-Nov-29 12:29N 40°41' W 074°08'0 0.0
2017-Nov-29 11:59N 40°41' W 074°08'0 0.0
2017-Nov-29 11:29N 40°41' W 074°08'0 0.0
2017-Nov-29 10:59N 40°41' W 074°08'0 0.0
2017-Nov-29 10:29N 40°41' W 074°08'0 0.0
2017-Nov-29 09:59N 40°41' W 074°08'0 0.0
2017-Nov-29 09:29N 40°41' W 074°08'0 0.0
2017-Nov-29 08:53N 40°41' W 074°08'0 0.0
2017-Nov-29 08:26N 40°41' W 074°08'0 0.0
2017-Nov-29 07:59N 40°41' W 074°08'0 0.0
2017-Nov-29 07:29N 40°41' W 074°08'0 0.0
2017-Nov-29 06:56N 40°41' W 074°08'0 0.0
2017-Nov-29 06:23N 40°41' W 074°08'0 0.0
2017-Nov-29 05:50N 40°41' W 074°08'0 0.0
2017-Nov-29 05:05N 40°41' W 074°08'0 0.0
2017-Nov-29 04:59N 40°41' W 074°08'0 0.0
2017-Nov-29 04:29N 40°41' W 074°08'0 0.0
2017-Nov-29 03:59N 40°41' W 074°08'0 0.0
2017-Nov-29 03:29N 40°41' W 074°08'0 0.0
2017-Nov-29 02:56N 40°41' W 074°08'0 0.0
2017-Nov-29 02:29N 40°41' W 074°08'0 0.0
2017-Nov-29 01:56N 40°41' W 074°08'0 0.0
2017-Nov-29 01:29N 40°41' W 074°08'0 0.0
2017-Nov-29 00:59N 40°41' W 074°08'0 0.0
2017-Nov-29 00:29N 40°41' W 074°08'0 0.0
2017-Nov-28 23:59N 40°41' W 074°08'0 0.0
2017-Nov-28 23:26N 40°41' W 074°08'0 0.0
2017-Nov-28 22:59N 40°41' W 074°08'0 0.0
2017-Nov-28 22:29N 40°41' W 074°08'0 0.0
2017-Nov-28 21:59N 40°41' W 074°08'0 0.0
2017-Nov-28 21:20N 40°41' W 074°08'0 0.0
2017-Nov-28 20:59N 40°41' W 074°08'0 0.0
2017-Nov-28 20:29N 40°41' W 074°08'0 0.0
2017-Nov-28 19:38N 40°41' W 074°08'0 0.0
2017-Nov-28 19:29N 40°41' W 074°08'0 0.0
2017-Nov-28 18:59N 40°41' W 074°08'0 0.0
2017-Nov-28 18:29N 40°41' W 074°08'0 0.0
2017-Nov-28 17:50N 40°41' W 074°08'0 0.0
2017-Nov-28 17:29N 40°41' W 074°08'0 0.0
2017-Nov-28 16:59N 40°41' W 074°08'0 0.0
2017-Nov-28 16:29N 40°41' W 074°08'0 0.0
2017-Nov-28 15:59N 40°41' W 074°08'0 0.0
2017-Nov-28 14:59N 40°41' W 074°08'0 0.0
2017-Nov-28 14:29N 40°41' W 074°08'0 0.0
2017-Nov-28 13:56N 40°41' W 074°08'0 0.0
2017-Nov-28 13:20N 40°41' W 074°08'0 0.0
2017-Nov-28 12:56N 40°41' W 074°08'0 0.0
2017-Nov-28 12:29N 40°41' W 074°08'0 0.0
2017-Nov-28 11:59N 40°41' W 074°08'0 0.0
2017-Nov-28 11:29N 40°41' W 074°08'0 0.0
2017-Nov-28 10:56N 40°41' W 074°08'0 0.0
2017-Nov-28 10:23N 40°41' W 074°08'0 0.0
2017-Nov-28 09:59N 40°41' W 074°08'0 0.0
2017-Nov-28 09:23N 40°41' W 074°08'0 0.0
2017-Nov-28 08:59N 40°41' W 074°08'0 0.0
2017-Nov-28 08:29N 40°41' W 074°08'0 0.0
2017-Nov-28 07:56N 40°41' W 074°08'0 0.0
2017-Nov-28 07:26N 40°41' W 074°08'0 0.0
2017-Nov-28 06:59N 40°41' W 074°08'0 0.0
2017-Nov-28 06:29N 40°41' W 074°08'0 0.0
2017-Nov-28 05:59N 40°41' W 074°08'0 0.0
2017-Nov-28 05:29N 40°41' W 074°08'0 0.0
2017-Nov-28 04:29N 40°41' W 074°08'0 0.0
2017-Nov-28 03:59N 40°41' W 074°08'0 0.0
2017-Nov-28 03:29N 40°41' W 074°08'0 0.0
2017-Nov-28 02:59N 40°41' W 074°08'0 0.0
2017-Nov-28 02:26N 40°41' W 074°08'0 0.0
2017-Nov-28 01:44N 40°41' W 074°08'0 0.0
2017-Nov-28 01:29N 40°41' W 074°08'0 0.0
2017-Nov-28 00:59N 40°41' W 074°08'0 0.0
2017-Nov-28 00:29N 40°41' W 074°08'0 0.0
2017-Nov-27 23:59N 40°41' W 074°08'0 0.0
2017-Nov-27 23:23N 40°41' W 074°08'0 0.0
2017-Nov-27 22:47N 40°41' W 074°08'0 0.0
2017-Nov-27 22:29N 40°41' W 074°08'0 0.0
2017-Nov-27 21:59N 40°41' W 074°08'0 0.0
2017-Nov-27 21:20N 40°41' W 074°08'0 0.0
2017-Nov-27 20:56N 40°41' W 074°08'0 0.0
2017-Nov-27 20:26N 40°41' W 074°08'0 0.0
2017-Nov-27 19:56N 40°41' W 074°08'0 0.0
2017-Nov-27 19:29N 40°41' W 074°08'0 0.0
2017-Nov-27 18:53N 40°41' W 074°08'0 0.0
2017-Nov-27 18:14N 40°41' W 074°08'0 0.0
2017-Nov-27 17:59N 40°41' W 074°08'0 0.0
2017-Nov-27 17:26N 40°41' W 074°08'  
Track history (hours):
 
Tides and Currents Weather Stations Pressure Air Temp Water Temp Dewpoint Dewpoint Depression Visibility Wind Speed Wind Dir Waves Ship Positions

Lake Dynasty

Last reported at 2017-Dec-07 17:14 UTC. Time now 2017-Dec-14 13:19 UTC.
Position N 39°45' W 023°26'.

Length 182 m; draft 11.5 m.

Type: Cargo ship. MMSI: 370957000.

Date/timePositionNaut miles runAvg speedWind from/ knotsBaromVisibWave heightAir tempDewpointWater temp
2017-Dec-07 17:14N 39°45' W 023°26'25213.1
2017-Dec-06 21:55N 40°36' W 028°49'  
2017-Nov-30 04:28N 40°24' W 073°29'11 9.7
2017-Nov-30 03:20N 40°26' W 073°43'3 9.8
2017-Nov-30 02:59N 40°27' W 073°47'5 9.3
2017-Nov-30 02:30N 40°28' W 073°53'5 9.9
2017-Nov-30 01:59N 40°31' W 073°59'510.8
2017-Nov-30 01:30N 40°35' W 074°02'4 8.8
2017-Nov-30 01:00N 40°39' W 074°05'3 5.6
2017-Nov-30 00:30N 40°39' W 074°09'2 4.3
2017-Nov-30 00:00N 40°41' W 074°08'0 0.2
2017-Nov-29 23:26N 40°41' W 074°08'0 0.0
2017-Nov-29 22:59N 40°41' W 074°08'0 0.0
2017-Nov-29 22:23N 40°41' W 074°08'0 0.0
2017-Nov-29 21:56N 40°41' W 074°08'0 0.0
2017-Nov-29 21:26N 40°41' W 074°08'0 0.0
2017-Nov-29 20:56N 40°41' W 074°08'0 0.0
2017-Nov-29 20:23N 40°41' W 074°08'0 0.0
2017-Nov-29 19:53N 40°41' W 074°08'0 0.0
2017-Nov-29 19:29N 40°41' W 074°08'0 0.0
2017-Nov-29 18:59N 40°41' W 074°08'0 0.0
2017-Nov-29 18:26N 40°41' W 074°08'0 0.0
2017-Nov-29 17:59N 40°41' W 074°08'0 0.0
2017-Nov-29 17:29N 40°41' W 074°08'0 0.0
2017-Nov-29 16:59N 40°41' W 074°08'0 0.0
2017-Nov-29 16:23N 40°41' W 074°08'0 0.0
2017-Nov-29 15:59N 40°41' W 074°08'0 0.0
2017-Nov-29 15:29N 40°41' W 074°08'0 0.0
2017-Nov-29 14:53N 40°41' W 074°08'0 0.0
2017-Nov-29 14:29N 40°41' W 074°08'0 0.0
2017-Nov-29 13:59N 40°41' W 074°08'0 0.0
2017-Nov-29 13:26N 40°41' W 074°08'0 0.0
2017-Nov-29 12:53N 40°41' W 074°08'0 0.0
2017-Nov-29 12:29N 40°41' W 074°08'0 0.0
2017-Nov-29 11:59N 40°41' W 074°08'0 0.0
2017-Nov-29 11:29N 40°41' W 074°08'0 0.0
2017-Nov-29 10:59N 40°41' W 074°08'0 0.0
2017-Nov-29 10:29N 40°41' W 074°08'0 0.0
2017-Nov-29 09:59N 40°41' W 074°08'0 0.0
2017-Nov-29 09:29N 40°41' W 074°08'0 0.0
2017-Nov-29 08:53N 40°41' W 074°08'0 0.0
2017-Nov-29 08:26N 40°41' W 074°08'0 0.0
2017-Nov-29 07:59N 40°41' W 074°08'0 0.0
2017-Nov-29 07:29N 40°41' W 074°08'0 0.0
2017-Nov-29 06:56N 40°41' W 074°08'0 0.0
2017-Nov-29 06:23N 40°41' W 074°08'0 0.0
2017-Nov-29 05:50N 40°41' W 074°08'0 0.0
2017-Nov-29 05:05N 40°41' W 074°08'0 0.0
2017-Nov-29 04:59N 40°41' W 074°08'0 0.0
2017-Nov-29 04:29N 40°41' W 074°08'0 0.0
2017-Nov-29 03:59N 40°41' W 074°08'0 0.0
2017-Nov-29 03:29N 40°41' W 074°08'0 0.0
2017-Nov-29 02:56N 40°41' W 074°08'0 0.0
2017-Nov-29 02:29N 40°41' W 074°08'0 0.0
2017-Nov-29 01:56N 40°41' W 074°08'0 0.0
2017-Nov-29 01:29N 40°41' W 074°08'0 0.0
2017-Nov-29 00:59N 40°41' W 074°08'0 0.0
2017-Nov-29 00:29N 40°41' W 074°08'0 0.0
2017-Nov-28 23:59N 40°41' W 074°08'0 0.0
2017-Nov-28 23:26N 40°41' W 074°08'0 0.0
2017-Nov-28 22:59N 40°41' W 074°08'0 0.0
2017-Nov-28 22:29N 40°41' W 074°08'0 0.0
2017-Nov-28 21:59N 40°41' W 074°08'0 0.0
2017-Nov-28 21:20N 40°41' W 074°08'0 0.0
2017-Nov-28 20:59N 40°41' W 074°08'0 0.0
2017-Nov-28 20:29N 40°41' W 074°08'0 0.0
2017-Nov-28 19:38N 40°41' W 074°08'0 0.0
2017-Nov-28 19:29N 40°41' W 074°08'0 0.0
2017-Nov-28 18:59N 40°41' W 074°08'0 0.0
2017-Nov-28 18:29N 40°41' W 074°08'0 0.0
2017-Nov-28 17:50N 40°41' W 074°08'0 0.0
2017-Nov-28 17:29N 40°41' W 074°08'0 0.0
2017-Nov-28 16:59N 40°41' W 074°08'0 0.0
2017-Nov-28 16:29N 40°41' W 074°08'0 0.0
2017-Nov-28 15:59N 40°41' W 074°08'0 0.0
2017-Nov-28 14:59N 40°41' W 074°08'0 0.0
2017-Nov-28 14:29N 40°41' W 074°08'0 0.0
2017-Nov-28 13:56N 40°41' W 074°08'0 0.0
2017-Nov-28 13:20N 40°41' W 074°08'0 0.0
2017-Nov-28 12:56N 40°41' W 074°08'0 0.0
2017-Nov-28 12:29N 40°41' W 074°08'0 0.0
2017-Nov-28 11:59N 40°41' W 074°08'0 0.0
2017-Nov-28 11:29N 40°41' W 074°08'0 0.0
2017-Nov-28 10:56N 40°41' W 074°08'0 0.0
2017-Nov-28 10:23N 40°41' W 074°08'0 0.0
2017-Nov-28 09:59N 40°41' W 074°08'0 0.0
2017-Nov-28 09:23N 40°41' W 074°08'0 0.0
2017-Nov-28 08:59N 40°41' W 074°08'0 0.0
2017-Nov-28 08:29N 40°41' W 074°08'0 0.0
2017-Nov-28 07:56N 40°41' W 074°08'0 0.0
2017-Nov-28 07:26N 40°41' W 074°08'0 0.0
2017-Nov-28 06:59N 40°41' W 074°08'0 0.0
2017-Nov-28 06:29N 40°41' W 074°08'0 0.0
2017-Nov-28 05:59N 40°41' W 074°08'0 0.0
2017-Nov-28 05:29N 40°41' W 074°08'0 0.0
2017-Nov-28 04:29N 40°41' W 074°08'0 0.0
2017-Nov-28 03:59N 40°41' W 074°08'0 0.0
2017-Nov-28 03:29N 40°41' W 074°08'0 0.0
2017-Nov-28 02:59N 40°41' W 074°08'0 0.0
2017-Nov-28 02:26N 40°41' W 074°08'0 0.0
2017-Nov-28 01:44N 40°41' W 074°08'0 0.0
2017-Nov-28 01:29N 40°41' W 074°08'0 0.0
2017-Nov-28 00:59N 40°41' W 074°08'0 0.0
2017-Nov-28 00:29N 40°41' W 074°08'0 0.0
2017-Nov-27 23:59N 40°41' W 074°08'0 0.0
2017-Nov-27 23:23N 40°41' W 074°08'0 0.0
2017-Nov-27 22:47N 40°41' W 074°08'0 0.0
2017-Nov-27 22:29N 40°41' W 074°08'0 0.0
2017-Nov-27 21:59N 40°41' W 074°08'0 0.0
2017-Nov-27 21:20N 40°41' W 074°08'0 0.0
2017-Nov-27 20:56N 40°41' W 074°08'0 0.0
2017-Nov-27 20:26N 40°41' W 074°08'0 0.0
2017-Nov-27 19:56N 40°41' W 074°08'0 0.0
2017-Nov-27 19:29N 40°41' W 074°08'0 0.0
2017-Nov-27 18:53N 40°41' W 074°08'0 0.0
2017-Nov-27 18:14N 40°41' W 074°08'0 0.0
2017-Nov-27 17:59N 40°41' W 074°08'0 0.0
2017-Nov-27 17:26N 40°41' W 074°08'  

Dump ship's entire track history